Time;durP1;ratioP1;P1;durP2;ratioP2;P2;SDS_P1;SDS_P2;PMS_P1;PMS_P2;Temp;Humidity;BMP_temperature;BMP_pressure;BME280_temperature;BME280_humidity;BME280_pressure;Samples;Min_cycle;Max_cycle;Signal;HPM_P1;HPM_P2
2023/05/24 00:00:11;;;;;;;42.88;8.35;;;;;;;9.51;100.00;101709.53;4973660;28;20186;-48
2023/05/24 00:02:42;;;;;;;41.97;8.23;;;;;;;9.64;100.00;101697.66;4972230;28;20637;-47
2023/05/24 00:05:09;;;;;;;40.65;8.00;;;;;;;9.56;100.00;101694.28;4973619;28;20246;-46
2023/05/24 00:07:36;;;;;;;38.65;8.55;;;;;;;9.62;100.00;101696.81;4973604;28;20181;-46
2023/05/24 00:10:03;;;;;;;40.05;8.88;;;;;;;9.56;100.00;101700.50;4974052;28;20189;-47
2023/05/24 00:12:29;;;;;;;43.88;8.98;;;;;;;9.49;100.00;101704.22;4973210;28;20305;-46
2023/05/24 00:14:54;;;;;;;35.75;8.93;;;;;;;9.57;100.00;101698.72;4972904;28;20251;-47
2023/05/24 00:17:20;;;;;;;30.27;7.30;;;;;;;9.58;100.00;101697.81;4958864;28;20194;-47
2023/05/24 00:19:46;;;;;;;46.67;8.95;;;;;;;9.61;100.00;101697.75;4973699;28;20250;-46
2023/05/24 00:22:12;;;;;;;44.08;8.57;;;;;;;9.54;100.00;101690.75;4973485;28;20177;-45
2023/05/24 00:24:39;;;;;;;35.42;8.23;;;;;;;9.55;100.00;101689.84;4973045;28;20699;-48
2023/05/24 00:27:05;;;;;;;39.55;8.75;;;;;;;9.60;100.00;101694.19;4973407;28;20197;-46
2023/05/24 00:29:31;;;;;;;45.55;8.98;;;;;;;9.55;100.00;101689.84;4973301;28;20269;-46
2023/05/24 00:31:57;;;;;;;37.63;8.07;;;;;;;9.57;100.00;101693.38;4973417;28;20300;-47
2023/05/24 00:34:22;;;;;;;35.20;7.65;;;;;;;9.59;100.00;101696.88;4973245;28;20209;-46
2023/05/24 00:36:47;;;;;;;42.03;8.32;;;;;;;9.59;100.00;101689.75;4973295;28;20232;-48
2023/05/24 00:39:14;;;;;;;35.67;7.70;;;;;;;9.64;100.00;101686.97;4973280;28;20236;-46
2023/05/24 00:41:41;;;;;;;36.97;7.75;;;;;;;9.58;100.00;101684.44;4970734;28;20513;-47
2023/05/24 00:44:09;;;;;;;40.17;7.70;;;;;;;9.54;100.00;101683.59;4972548;28;20281;-45
2023/05/24 00:46:35;;;;;;;43.38;8.90;;;;;;;9.62;100.00;101687.03;4956292;28;20300;-48
2023/05/24 00:49:01;;;;;;;43.40;9.15;;;;;;;9.51;100.00;101682.78;4971383;28;20272;-45
2023/05/24 00:51:27;;;;;;;45.15;9.20;;;;;;;9.54;100.00;101685.41;4968059;28;20282;-45
2023/05/24 00:53:53;;;;;;;39.15;8.48;;;;;;;9.58;100.00;101690.66;4969604;28;20237;-45
2023/05/24 00:56:19;;;;;;;43.95;8.35;;;;;;;9.57;100.00;101678.19;4969801;28;20567;-47
2023/05/24 00:58:45;;;;;;;42.80;8.57;;;;;;;9.51;100.00;101680.09;4954884;28;20222;-46
2023/05/24 01:01:11;;;;;;;38.40;8.52;;;;;;;9.61;100.00;101679.88;4972893;28;20190;-44
2023/05/24 01:03:38;;;;;;;38.22;7.68;;;;;;;9.59;100.00;101678.16;4955050;28;20415;-46
2023/05/24 01:06:06;;;;;;;34.63;8.05;;;;;;;9.61;100.00;101671.00;4955323;28;20571;-45
2023/05/24 01:08:38;;;;;;;46.30;8.93;;;;;;;9.65;100.00;101678.03;4969395;28;20205;-46
2023/05/24 01:11:26;;;;;;;41.60;8.15;;;;;;;9.64;100.00;101665.56;4939154;28;20268;-45
2023/05/24 01:14:33;;;;;;;41.78;8.52;;;;;;;9.58;100.00;101671.94;4970200;28;20207;-49
2023/05/24 01:17:16;;;;;;;33.58;7.40;;;;;;;9.63;100.00;101667.38;4973271;28;20652;-46
2023/05/24 01:19:53;;;;;;;39.15;8.38;;;;;;;9.54;100.00;101667.56;4972635;28;20190;-44
2023/05/24 01:22:33;;;;;;;43.75;8.70;;;;;;;9.55;100.00;101679.13;4972426;28;20188;-45
2023/05/24 01:25:05;;;;;;;36.00;8.10;;;;;;;9.60;100.00;101674.56;4971521;28;20677;-47
2023/05/24 01:27:33;;;;;;;35.63;8.05;;;;;;;9.61;100.00;101673.66;4965936;28;20177;-45
2023/05/24 01:30:01;;;;;;;35.55;8.27;;;;;;;9.60;100.00;101663.84;4951958;28;20186;-44
2023/05/24 01:32:27;;;;;;;37.17;9.07;;;;;;;9.48;100.00;101673.91;4963583;28;20551;-46
2023/05/24 01:34:52;;;;;;;32.95;8.30;;;;;;;9.52;100.00;101671.19;4971906;28;20198;-44
2023/05/24 01:37:18;;;;;;;40.08;8.27;;;;;;;9.54;100.00;101672.91;4954734;28;20190;-45
2023/05/24 01:39:44;;;;;;;41.80;9.25;;;;;;;9.47;100.00;101664.13;4962070;28;20206;-45
2023/05/24 01:42:23;;;;;;;40.42;8.57;;;;;;;9.42;100.00;101671.38;4971904;28;20668;-45
2023/05/24 01:45:10;;;;;;;37.92;8.10;;;;;;;9.41;100.00;101677.63;4968991;28;20689;-46
2023/05/24 01:48:01;;;;;;;41.63;8.38;;;;;;;9.45;100.00;101679.31;5035162;27;21130;-45
2023/05/24 01:50:33;;;;;;;42.00;8.30;;;;;;;9.43;100.00;101686.50;5032215;28;20199;-45
2023/05/24 01:53:05;;;;;;;39.40;8.60;;;;;;;9.43;100.00;101690.97;5025935;28;20594;-46
2023/05/24 01:55:32;;;;;;;42.90;8.88;;;;;;;9.38;100.00;101688.38;5036963;28;20224;-46
2023/05/24 01:58:02;;;;;;;41.45;10.18;;;;;;;9.45;100.00;101691.81;5039245;28;20222;-44
2023/05/24 02:00:30;;;;;;;37.92;9.30;;;;;;;9.51;100.00;101691.72;5016248;28;20234;-43
2023/05/24 02:02:57;;;;;;;43.03;8.45;;;;;;;9.49;100.00;101691.72;5039085;28;20172;-43
2023/05/24 02:05:22;;;;;;;37.58;8.73;;;;;;;9.46;100.00;101691.78;5032788;28;20307;-44
2023/05/24 02:07:48;;;;;;;42.83;8.68;;;;;;;9.40;100.00;101689.25;5040684;28;20262;-44
2023/05/24 02:10:13;;;;;;;32.83;8.07;;;;;;;9.43;100.00;101685.63;5040965;28;20171;-43
2023/05/24 02:12:39;;;;;;;40.75;9.68;;;;;;;9.40;100.00;101683.00;5030147;28;20184;-43
2023/05/24 02:15:05;;;;;;;46.42;9.57;;;;;;;9.48;100.00;101692.63;5029154;28;20298;-43
2023/05/24 02:17:31;;;;;;;43.42;8.68;;;;;;;9.37;100.00;101696.44;5027553;28;20175;-41
2023/05/24 02:19:58;;;;;;;34.03;7.68;;;;;;;9.37;100.00;101696.44;5036547;28;20707;-42
2023/05/24 02:22:26;;;;;;;38.50;9.18;;;;;;;9.39;100.00;101684.78;5040638;28;20183;-42
2023/05/24 02:24:52;;;;;;;37.47;9.55;;;;;;;9.39;100.00;101690.13;5035985;28;20578;-41
2023/05/24 02:27:17;;;;;;;38.67;8.85;;;;;;;9.34;100.00;101696.50;5037610;28;20196;-44
2023/05/24 02:29:43;;;;;;;41.08;9.27;;;;;;;9.36;100.00;101692.88;5034924;28;20195;-43
2023/05/24 02:32:08;;;;;;;40.45;8.95;;;;;;;9.32;100.00;101704.53;5038602;28;20179;-44
2023/05/24 02:34:34;;;;;;;45.70;9.27;;;;;;;9.31;100.00;101692.06;5041545;28;20241;-42
2023/05/24 02:37:00;;;;;;;37.80;8.02;;;;;;;9.27;100.00;101696.63;5034729;28;20172;-43
2023/05/24 02:39:26;;;;;;;43.85;8.57;;;;;;;9.37;100.00;101696.44;5035619;28;20535;-43
2023/05/24 02:41:52;;;;;;;42.03;8.18;;;;;;;9.38;100.00;101700.84;5040229;28;20171;-45
2023/05/24 02:44:18;;;;;;;39.63;8.38;;;;;;;9.27;100.00;101693.94;5038249;28;20249;-44
2023/05/24 02:46:43;;;;;;;42.17;8.77;;;;;;;9.43;100.00;101699.00;5035347;28;20215;-45
2023/05/24 02:49:09;;;;;;;39.00;8.48;;;;;;;9.36;100.00;101700.91;5032361;28;20187;-43
2023/05/24 02:51:35;;;;;;;43.47;8.43;;;;;;;9.36;100.00;101702.69;5039716;28;20642;-43
2023/05/24 02:54:02;;;;;;;41.63;9.10;;;;;;;9.22;100.00;101703.81;5031286;28;20192;-44
2023/05/24 02:56:28;;;;;;;39.90;8.70;;;;;;;9.22;100.00;101717.19;5035998;22;20224;-46
2023/05/24 02:58:54;;;;;;;42.97;9.43;;;;;;;9.28;100.00;101718.88;4994905;28;20690;-46
2023/05/24 03:01:21;;;;;;;50.65;9.38;;;;;;;9.26;100.00;101718.03;4999155;28;20631;-46
2023/05/24 03:03:49;;;;;;;46.63;10.10;;;;;;;9.28;100.00;101718.88;5010600;28;20662;-45
2023/05/24 03:06:15;;;;;;;43.00;9.38;;;;;;;9.31;100.00;101718.81;5012098;28;20266;-46
2023/05/24 03:08:41;;;;;;;48.45;10.02;;;;;;;9.34;100.00;101721.44;5008745;28;20189;-48
2023/05/24 03:11:06;;;;;;;45.97;9.45;;;;;;;9.38;100.00;101725.84;5007510;28;20643;-47
2023/05/24 03:13:33;;;;;;;42.38;9.18;;;;;;;9.39;100.00;101718.69;5007881;28;20296;-45
2023/05/24 03:15:58;;;;;;;40.67;9.38;;;;;;;9.35;100.00;101714.31;5009725;28;20195;-45
2023/05/24 03:18:24;;;;;;;46.38;10.23;;;;;;;9.27;100.00;101723.34;5011732;28;20627;-46
2023/05/24 03:20:50;;;;;;;37.95;9.18;;;;;;;9.28;100.00;101714.41;5011476;28;20647;-46
2023/05/24 03:23:16;;;;;;;47.47;9.68;;;;;;;9.25;100.00;101714.47;5009743;28;20220;-47
2023/05/24 03:25:42;;;;;;;49.10;9.07;;;;;;;9.34;100.00;101720.56;5009397;28;20875;-46
2023/05/24 03:28:08;;;;;;;41.50;8.75;;;;;;;9.35;100.00;101717.84;5007893;28;20180;-45
2023/05/24 03:30:34;;;;;;;46.63;9.70;;;;;;;9.38;100.00;101720.47;5010037;28;20196;-46
2023/05/24 03:33:00;;;;;;;46.63;10.57;;;;;;;9.43;100.00;101721.25;5008609;28;20207;-47
2023/05/24 03:35:26;;;;;;;41.28;9.27;;;;;;;9.46;100.00;101717.66;5010094;28;20197;-46
2023/05/24 03:37:52;;;;;;;46.53;9.60;;;;;;;9.45;100.00;101719.44;5008220;28;20193;-45
2023/05/24 03:40:18;;;;;;;38.95;9.18;;;;;;;9.52;100.00;101724.69;5009675;28;20184;-47
2023/05/24 03:42:55;;;;;;;46.00;9.20;;;;;;;9.54;100.00;101725.53;5009568;28;20184;-46
2023/05/24 03:45:30;;;;;;;41.55;10.10;;;;;;;9.52;100.00;101727.38;5010125;28;20210;-46
2023/05/24 03:47:57;;;;;;;43.60;9.02;;;;;;;9.45;100.00;101727.47;5010932;28;20623;-44
2023/05/24 03:50:23;;;;;;;42.47;8.98;;;;;;;9.49;100.00;101726.50;5010706;28;20176;-46
2023/05/24 03:52:48;;;;;;;41.67;9.02;;;;;;;9.56;100.00;101732.63;5010566;28;20179;-47
2023/05/24 03:55:14;;;;;;;40.53;9.10;;;;;;;9.57;100.00;101733.50;5010577;28;20220;-47
2023/05/24 03:57:41;;;;;;;49.60;9.48;;;;;;;9.45;100.00;101735.50;5010560;28;20682;-47
2023/05/24 04:00:08;;;;;;;49.42;9.77;;;;;;;9.48;100.00;101730.06;5010487;28;20181;-50
2023/05/24 04:02:39;;;;;;;39.05;9.65;;;;;;;9.57;100.00;101729.00;5011485;28;20161;-50
2023/05/24 04:05:09;;;;;;;41.42;9.55;;;;;;;9.51;100.00;101741.63;5010079;28;20193;-46
2023/05/24 04:07:36;;;;;;;46.67;9.75;;;;;;;9.46;100.00;101745.28;5009667;28;20276;-45
2023/05/24 04:10:03;;;;;;;42.00;9.65;;;;;;;9.59;100.00;101745.06;5009300;28;20215;-47
2023/05/24 04:12:30;;;;;;;46.10;9.40;;;;;;;9.60;100.00;101750.38;5010097;28;20291;-47
2023/05/24 04:14:55;;;;;;;48.05;10.88;;;;;;;9.55;100.00;101746.00;5001379;28;20201;-48
2023/05/24 04:17:23;;;;;;;48.70;9.25;;;;;;;9.51;100.00;101745.22;5010104;28;20177;-49
2023/05/24 04:19:50;;;;;;;43.15;10.15;;;;;;;9.56;100.00;101751.34;5008860;28;20333;-49
2023/05/24 04:22:17;;;;;;;54.13;10.77;;;;;;;9.55;100.00;101746.00;5008702;28;20191;-48
2023/05/24 04:24:44;;;;;;;49.17;11.48;;;;;;;9.58;100.00;101746.84;5024171;28;20715;-49
2023/05/24 04:27:09;;;;;;;46.90;10.13;;;;;;;9.63;100.00;101754.78;5005417;28;20626;-51
2023/05/24 04:29:35;;;;;;;42.53;9.55;;;;;;;9.68;100.00;101755.56;5008954;28;20197;-50
2023/05/24 04:32:01;;;;;;;49.08;9.98;;;;;;;9.69;100.00;101758.22;5008631;28;20637;-49
2023/05/24 04:34:32;;;;;;;45.22;9.20;;;;;;;9.80;100.00;101759.81;5008302;28;20307;-47
2023/05/24 04:36:59;;;;;;;47.45;9.27;;;;;;;9.76;100.00;101750.06;5006864;28;20624;-49
2023/05/24 04:39:25;;;;;;;45.70;10.27;;;;;;;9.82;100.00;101764.22;5009896;28;20177;-48
2023/05/24 04:41:51;;;;;;;34.50;8.57;;;;;;;9.87;100.00;101764.13;5008243;28;20192;-50
2023/05/24 04:44:18;;;;;;;46.97;10.40;;;;;;;9.80;100.00;101766.03;5009710;28;20223;-48
2023/05/24 04:46:43;;;;;;;50.45;10.15;;;;;;;9.58;100.00;101759.34;5009960;28;20249;-48
2023/05/24 04:49:09;;;;;;;45.00;9.07;;;;;;;9.72;100.00;101764.44;5008005;28;20231;-50
2023/05/24 04:51:37;;;;;;;49.13;10.02;;;;;;;9.72;100.00;101772.44;5009738;28;20176;-49
2023/05/24 04:54:07;;;;;;;45.95;9.50;;;;;;;9.71;100.00;101776.94;5005317;28;20591;-48
2023/05/24 04:56:34;;;;;;;47.40;8.93;;;;;;;9.65;100.00;101769.00;5009496;28;20667;-48
2023/05/24 04:59:00;;;;;;;39.55;9.38;;;;;;;9.67;100.00;101777.91;5009974;28;20212;-47
2023/05/24 05:01:26;;;;;;;49.17;10.30;;;;;;;9.65;100.00;101777.91;5009514;28;20227;-48
2023/05/24 05:03:51;;;;;;;37.78;9.38;;;;;;;9.59;100.00;101783.38;5009092;28;20205;-48
2023/05/24 05:06:17;;;;;;;46.38;9.63;;;;;;;9.62;100.00;101779.75;5006488;28;20199;-50
2023/05/24 05:08:42;;;;;;;51.30;9.98;;;;;;;9.74;100.00;101787.56;5007383;28;20215;-49
2023/05/24 05:11:08;;;;;;;39.38;9.38;;;;;;;9.78;100.00;101785.72;5007256;28;20263;-47
2023/05/24 05:13:34;;;;;;;44.90;9.35;;;;;;;9.80;100.00;101790.13;5009203;28;20256;-49
2023/05/24 05:16:00;;;;;;;39.03;9.00;;;;;;;9.88;100.00;101790.88;5009427;28;20227;-48
2023/05/24 05:18:26;;;;;;;40.67;8.40;;;;;;;9.88;100.00;101792.63;5009433;28;20184;-50
2023/05/24 05:20:51;;;;;;;48.47;9.15;;;;;;;9.89;100.00;101795.28;5007771;28;20188;-49
2023/05/24 05:23:17;;;;;;;41.00;9.23;;;;;;;9.80;100.00;101790.13;5003849;28;20199;-46
2023/05/24 05:25:42;;;;;;;41.97;9.43;;;;;;;9.90;100.00;101794.41;5009428;28;20244;-49
2023/05/24 05:28:08;;;;;;;44.30;9.13;;;;;;;10.01;100.00;101798.63;5009311;28;20192;-49
2023/05/24 05:30:33;;;;;;;40.08;10.02;;;;;;;10.04;100.00;101793.22;5009509;28;20705;-48
2023/05/24 05:32:59;;;;;;;39.90;9.65;;;;;;;10.09;100.00;101792.19;5008503;28;20703;-49
2023/05/24 05:35:24;;;;;;;46.38;9.98;;;;;;;10.06;100.00;101796.75;5009080;28;20199;-48
2023/05/24 05:37:50;;;;;;;56.38;10.60;;;;;;;10.07;100.00;101799.38;5008441;28;20597;-49
2023/05/24 05:40:15;;;;;;;38.83;9.77;;;;;;;10.14;100.00;101800.13;5008447;28;20651;-48
2023/05/24 05:42:41;;;;;;;49.17;10.43;;;;;;;10.20;100.00;101800.00;5008956;28;20176;-50
2023/05/24 05:45:07;;;;;;;55.58;11.75;;;;;;;10.13;100.00;101800.19;5009687;28;20205;-49
2023/05/24 05:47:32;;;;;;;50.15;11.68;;;;;;;10.14;100.00;101804.63;5009185;28;20243;-49
2023/05/24 05:49:58;;;;;;;52.65;10.90;;;;;;;10.16;100.00;101805.47;5008356;28;20204;-48
2023/05/24 05:52:23;;;;;;;50.40;11.45;;;;;;;10.10;100.00;101817.19;5007903;28;20212;-48
2023/05/24 05:54:49;;;;;;;52.10;10.65;;;;;;;10.17;100.00;101817.97;5008718;28;20219;-48
2023/05/24 05:57:18;;;;;;;52.75;11.25;;;;;;;10.30;100.00;101816.81;5007138;28;20188;-48
2023/05/24 05:59:43;;;;;;;42.30;10.07;;;;;;;10.25;100.00;101814.19;5007677;28;20231;-49
2023/05/24 06:02:11;;;;;;;47.03;9.55;;;;;;;10.21;100.00;101828.56;5006663;28;20219;-47
2023/05/24 06:04:37;;;;;;;48.50;9.93;;;;;;;10.26;100.00;101824.00;5007387;28;20193;-48
2023/05/24 06:07:02;;;;;;;49.33;10.48;;;;;;;10.34;100.00;101833.69;5008967;28;20250;-50
2023/05/24 06:09:28;;;;;;;42.28;10.00;;;;;;;10.54;100.00;101833.25;5008623;28;20185;-49
2023/05/24 06:11:53;;;;;;;44.42;9.63;;;;;;;10.50;100.00;101827.97;5008700;28;20230;-48
2023/05/24 06:14:21;;;;;;;44.45;10.25;;;;;;;10.44;100.00;101836.16;5007489;28;20488;-48
2023/05/24 06:16:47;;;;;;;43.90;9.57;;;;;;;10.57;100.00;101834.09;5008240;28;20192;-49
2023/05/24 06:19:12;;;;;;;35.05;9.55;;;;;;;10.60;100.00;101836.69;5008712;28;20401;-48
2023/05/24 06:21:39;;;;;;;44.80;10.13;;;;;;;10.66;100.00;101841.03;5008508;28;20172;-48
2023/05/24 06:24:08;;;;;;;45.08;10.73;;;;;;;10.80;100.00;101849.66;5008167;28;20223;-49
2023/05/24 06:26:36;;;;;;;44.38;9.63;;;;;;;10.63;100.00;101846.47;5007829;28;20741;-48
2023/05/24 06:29:01;;;;;;;39.08;8.63;;;;;;;11.02;100.00;101849.13;5008083;28;20184;-48
2023/05/24 06:31:27;;;;;;;39.22;8.63;;;;;;;11.19;100.00;101851.44;5007619;28;20529;-48
2023/05/24 06:33:52;;;;;;;44.67;9.18;;;;;;;11.16;100.00;101852.38;4992865;28;20273;-48
2023/05/24 06:36:17;;;;;;;32.55;8.40;;;;;;;11.17;100.00;101848.75;5012809;28;20172;-48
2023/05/24 06:38:43;;;;;;;33.78;8.02;;;;;;;11.10;100.00;101852.53;5009985;28;20193;-48
2023/05/24 06:41:08;;;;;;;42.70;8.90;;;;;;;11.13;100.00;101861.41;5008042;28;20288;-49
2023/05/24 06:43:34;;;;;;;43.78;9.32;;;;;;;11.07;100.00;101863.34;5011019;28;20239;-49
2023/05/24 06:45:59;;;;;;;47.58;9.63;;;;;;;10.99;100.00;101862.63;5010227;28;20581;-49
2023/05/24 06:48:25;;;;;;;36.83;8.73;;;;;;;11.14;100.00;101865.81;5009768;28;20596;-48
2023/05/24 06:50:51;;;;;;;39.47;8.48;;;;;;;11.22;100.00;101872.81;5010844;28;20189;-49
2023/05/24 06:53:17;;;;;;;44.90;9.55;;;;;;;11.10;100.00;101872.19;5011990;28;20184;-47
2023/05/24 06:55:42;;;;;;;51.35;10.57;;;;;;;11.12;100.00;101874.84;5012202;28;20196;-49
2023/05/24 06:58:13;;;;;;;39.75;9.90;;;;;;;10.97;100.00;101885.91;5006554;28;20694;-48
2023/05/24 07:00:40;;;;;;;50.92;11.65;;;;;;;11.08;100.00;101876.69;5010580;28;20192;-46
2023/05/24 07:03:06;;;;;;;38.65;9.40;;;;;;;11.18;100.00;101879.19;5011541;28;20181;-47
2023/05/24 07:05:31;;;;;;;52.15;11.32;;;;;;;11.06;100.00;101886.59;5007801;28;20367;-47
2023/05/24 07:07:57;;;;;;;46.05;10.27;;;;;;;11.08;100.00;101895.47;5008463;28;20607;-48
2023/05/24 07:10:22;;;;;;;49.88;9.18;;;;;;;11.19;100.00;101888.97;5010086;28;20544;-50
2023/05/24 07:12:48;;;;;;;56.83;10.15;;;;;;;10.93;100.00;101894.03;5010963;28;20295;-49
2023/05/24 07:15:13;;;;;;;44.17;9.98;;;;;;;11.06;100.00;101904.47;5011542;28;20287;-50
2023/05/24 07:17:39;;;;;;;31.85;8.10;;;;;;;11.18;100.00;101896.16;5011414;28;20185;-49
2023/05/24 07:20:09;;;;;;;41.05;9.65;;;;;;;11.13;100.00;101901.63;5009913;28;20745;-50
2023/05/24 07:22:35;;;;;;;41.42;8.88;;;;;;;11.30;100.00;101905.69;5010837;28;20188;-48
2023/05/24 07:25:01;;;;;;;38.15;9.30;;;;;;;11.17;100.00;101905.09;5011257;28;20219;-48
2023/05/24 07:27:27;;;;;;;39.95;9.05;;;;;;;11.15;100.00;101917.69;5011404;28;20196;-49
2023/05/24 07:29:53;;;;;;;45.67;9.85;;;;;;;11.14;100.00;101914.09;5009176;28;20189;-48
2023/05/24 07:32:19;;;;;;;48.50;9.88;;;;;;;11.09;100.00;101913.34;5011219;28;20271;-49
2023/05/24 07:34:44;;;;;;;50.47;10.05;;;;;;;11.23;100.00;101918.38;5011460;28;20204;-49
2023/05/24 07:37:10;;;;;;;54.72;10.43;;;;;;;11.14;100.00;101916.78;5011437;28;20566;-49
2023/05/24 07:39:36;;;;;;;38.40;8.45;;;;;;;11.12;100.00;101923.97;5011542;28;20176;-51
2023/05/24 07:42:02;;;;;;;39.83;8.75;;;;;;;11.27;100.00;101925.44;5011137;28;20189;-49
2023/05/24 07:44:28;;;;;;;37.25;9.02;;;;;;;11.43;100.00;101925.94;5010786;28;20640;-50
2023/05/24 07:46:54;;;;;;;30.48;8.30;;;;;;;11.78;100.00;101916.13;4992827;28;20280;-47
2023/05/24 07:49:20;;;;;;;34.78;7.95;;;;;;;12.19;100.00;101922.25;5009631;28;20181;-48
2023/05/24 07:51:46;;;;;;;41.42;9.43;;;;;;;12.11;100.00;101921.56;5010070;28;20597;-49
2023/05/24 07:54:12;;;;;;;40.33;9.55;;;;;;;12.27;100.00;101919.34;5010757;28;20332;-49
2023/05/24 07:56:37;;;;;;;48.00;9.32;;;;;;;12.39;100.00;101924.38;5010759;28;20682;-48
2023/05/24 07:59:03;;;;;;;36.33;8.65;;;;;;;12.62;100.00;101923.72;5009874;28;20194;-49
2023/05/24 08:01:34;;;;;;;36.38;8.38;;;;;;;12.75;100.00;101914.38;5009815;28;20612;-49
2023/05/24 08:04:02;;;;;;;36.47;7.70;;;;;;;12.41;100.00;101906.41;5008847;28;20193;-49
2023/05/24 08:06:29;;;;;;;32.20;8.45;;;;;;;12.88;100.00;101916.66;5009793;28;20251;-49
2023/05/24 08:08:55;;;;;;;27.90;7.28;;;;;;;13.37;100.00;101907.09;5010805;28;20192;-48
2023/05/24 08:11:21;;;;;;;32.08;7.70;;;;;;;13.45;97.75;101901.47;5010166;28;20187;-51
2023/05/24 08:13:46;;;;;;;29.92;7.32;;;;;;;13.87;94.97;101892.88;5010215;28;20553;-47
2023/05/24 08:16:12;;;;;;;34.92;8.60;;;;;;;14.13;93.29;101894.63;5010562;28;20184;-48
2023/05/24 08:18:37;;;;;;;33.92;8.60;;;;;;;14.27;91.74;101892.28;5010809;28;20314;-48
2023/05/24 08:21:03;;;;;;;29.02;8.20;;;;;;;14.28;90.46;101891.38;5010772;28;20250;-47
2023/05/24 08:23:29;;;;;;;34.40;7.63;;;;;;;13.45;90.23;101888.88;5009438;28;20172;-48
2023/05/24 08:25:58;;;;;;;30.02;7.68;;;;;;;13.16;90.30;101898.75;5010643;28;20787;-48
2023/05/24 08:28:23;;;;;;;27.88;7.90;;;;;;;13.59;90.85;101900.06;5008918;28;20187;-47
2023/05/24 08:30:49;;;;;;;30.15;7.60;;;;;;;13.96;90.21;101901.50;5010570;28;20185;-48
2023/05/24 08:33:14;;;;;;;36.88;7.70;;;;;;;14.09;88.59;101899.25;5009992;28;20303;-48
2023/05/24 08:35:40;;;;;;;30.42;7.63;;;;;;;13.85;88.00;101895.59;5010565;28;20197;-48
2023/05/24 08:38:06;;;;;;;31.05;7.38;;;;;;;14.10;88.68;101895.63;5007319;28;20185;-48
2023/05/24 08:40:31;;;;;;;35.38;7.38;;;;;;;13.87;88.08;101906.34;5008994;28;20456;-48
2023/05/24 08:43:00;;;;;;;32.78;7.40;;;;;;;13.57;87.13;101898.34;5009034;28;20180;-49
2023/05/24 08:45:29;;;;;;;26.27;5.30;;;;;;;14.52;86.01;101902.16;5008993;28;20208;-48
2023/05/24 08:47:56;;;;;;;24.77;6.65;;;;;;;14.90;84.26;101900.75;5009315;28;20197;-49
2023/05/24 08:50:22;;;;;;;23.55;6.35;;;;;;;14.93;82.08;101897.91;5010398;28;20275;-50
2023/05/24 08:52:48;;;;;;;29.17;5.78;;;;;;;15.69;81.21;101886.75;5009537;28;20177;-49
2023/05/24 08:55:14;;;;;;;18.23;4.97;;;;;;;15.64;80.07;101887.81;5007330;28;20286;-47
2023/05/24 08:57:41;;;;;;;23.75;6.53;;;;;;;15.61;78.42;101895.16;5008227;28;20798;-47
2023/05/24 09:00:10;;;;;;;15.20;5.25;;;;;;;15.83;77.30;101895.16;5005801;28;20672;-47
2023/05/24 09:02:37;;;;;;;13.73;4.93;;;;;;;15.62;76.55;101895.09;5008300;28;20198;-48
2023/05/24 09:05:05;;;;;;;17.05;4.53;;;;;;;14.80;75.05;101892.13;5037013;23;20220;-39
2023/05/24 09:07:31;;;;;;;17.67;4.30;;;;;;;14.48;75.24;101903.25;5009712;28;20199;-41
2023/05/24 09:10:00;;;;;;;13.20;4.10;;;;;;;14.63;74.66;101900.00;5010587;28;20165;-41
2023/05/24 09:12:29;;;;;;;15.30;3.90;;;;;;;14.83;73.54;101892.00;5010704;28;20149;-42
2023/05/24 09:14:56;;;;;;;14.63;4.07;;;;;;;14.38;73.94;101900.00;5022535;28;20689;-42
2023/05/24 09:17:22;;;;;;;22.38;5.68;;;;;;;14.31;75.31;101906.56;5029918;28;20644;-40
2023/05/24 09:19:50;;;;;;;27.88;7.25;;;;;;;13.73;77.92;101922.94;5030551;28;20168;-43
2023/05/24 09:22:22;;;;;;;20.15;6.35;;;;;;;13.24;79.60;101932.63;5029363;28;20660;-41
2023/05/24 09:24:48;;;;;;;27.90;7.40;;;;;;;13.27;82.48;101952.25;5030646;28;20572;-43
2023/05/24 09:27:20;;;;;;;28.92;8.07;;;;;;;13.49;84.45;101949.78;5030708;28;20192;-40
2023/05/24 09:29:53;;;;;;;32.75;8.70;;;;;;;14.01;85.88;101958.81;5030949;28;20168;-41
2023/05/24 09:32:23;;;;;;;31.40;7.75;;;;;;;13.78;85.88;101969.47;5030334;28;20250;-40
2023/05/24 09:34:52;;;;;;;30.38;7.78;;;;;;;14.08;85.99;101967.56;5030469;28;20227;-43
2023/05/24 09:37:20;;;;;;;32.75;9.02;;;;;;;14.61;85.31;101962.09;5030799;28;20176;-41
2023/05/24 09:39:47;;;;;;;28.35;6.97;;;;;;;14.58;84.10;101954.13;5030482;28;20643;-42
2023/05/24 09:42:26;;;;;;;23.90;7.28;;;;;;;14.48;83.48;101954.47;5030947;28;20173;-42
2023/05/24 09:45:05;;;;;;;27.67;7.18;;;;;;;14.55;82.80;101956.91;5030548;28;20195;-42
2023/05/24 09:47:33;;;;;;;24.60;6.57;;;;;;;14.61;81.98;101945.03;5030751;28;20245;-43
2023/05/24 09:49:59;;;;;;;25.15;7.25;;;;;;;14.58;81.18;101954.13;5029510;28;20171;-42
2023/05/24 09:52:26;;;;;;;21.20;6.95;;;;;;;14.82;80.28;101946.94;5030353;28;20174;-42
2023/05/24 09:54:52;;;;;;;26.88;6.85;;;;;;;14.78;80.23;101947.97;5030491;28;20204;-42
2023/05/24 09:57:21;;;;;;;25.23;6.55;;;;;;;14.88;79.46;101940.41;5030719;28;20673;-40
2023/05/24 09:59:47;;;;;;;22.60;6.28;;;;;;;14.27;80.23;101942.66;5030231;28;20180;-43
2023/05/24 10:02:12;;;;;;;14.55;5.40;;;;;;;14.63;79.95;101944.03;5030385;28;20171;-42
2023/05/24 10:04:38;;;;;;;21.77;5.45;;;;;;;14.95;79.80;101933.81;5029943;28;20234;-44
2023/05/24 10:07:07;;;;;;;22.77;5.45;;;;;;;14.69;79.10;101936.63;5029854;28;20283;-43
2023/05/24 10:09:34;;;;;;;19.67;6.35;;;;;;;14.76;79.94;101939.06;5034359;28;20184;-43
2023/05/24 10:12:05;;;;;;;20.50;6.22;;;;;;;14.56;80.10;101941.59;5033965;28;20251;-44
2023/05/24 10:14:36;;;;;;;23.05;5.97;;;;;;;15.06;79.95;101937.91;5033621;28;20225;-42
2023/05/24 10:17:06;;;;;;;17.10;5.53;;;;;;;14.69;79.56;101940.22;5015986;28;20187;-42
2023/05/24 10:19:32;;;;;;;15.65;5.00;;;;;;;14.99;79.97;101937.28;5033644;28;20168;-43
2023/05/24 10:21:59;;;;;;;14.57;4.85;;;;;;;15.20;79.29;101938.28;5033876;28;20172;-41
2023/05/24 10:24:31;;;;;;;12.20;4.70;;;;;;;14.80;78.22;101935.31;5033282;28;20218;-42
2023/05/24 10:26:58;;;;;;;16.38;5.20;;;;;;;15.12;78.93;101930.47;5033501;28;20568;-43
2023/05/24 10:29:47;;;;;;;16.98;5.35;;;;;;;14.75;78.56;101942.69;5033594;28;20164;-41
2023/05/24 10:32:16;;;;;;;13.30;5.22;;;;;;;14.88;79.89;101937.69;5033308;28;20161;-43
2023/05/24 10:34:42;;;;;;;13.25;4.82;;;;;;;15.32;78.65;101936.88;5032091;28;20693;-41
2023/05/24 10:37:08;;;;;;;24.77;5.53;;;;;;;15.17;77.84;101938.38;5033656;28;20226;-43
2023/05/24 10:39:34;;;;;;;13.82;4.97;;;;;;;14.97;78.07;101933.75;5031956;28;20172;-43
2023/05/24 10:42:06;;;;;;;18.63;4.25;;;;;;;15.06;78.44;101946.03;5033484;28;20179;-42
2023/05/24 10:44:32;;;;;;;16.90;4.88;;;;;;;14.45;78.84;101943.78;5032087;28;20192;-43
2023/05/24 10:47:11;;;;;;;12.55;4.88;;;;;;;14.68;79.43;101946.56;5033544;28;20239;-44
2023/05/24 10:49:51;;;;;;;12.82;4.53;;;;;;;15.02;79.81;101950.66;5033179;28;20664;-42
2023/05/24 10:52:17;;;;;;;16.42;5.07;;;;;;;14.71;79.64;101961.75;5033138;28;20170;-41
2023/05/24 10:55:07;;;;;;;15.63;5.22;;;;;;;14.81;80.13;101961.34;5033014;28;20779;-44
2023/05/24 10:57:33;;;;;;;14.80;4.90;;;;;;;15.21;79.87;101951.69;5033244;28;20584;-42
2023/05/24 11:00:23;;;;;;;17.10;5.82;;;;;;;15.74;78.75;101953.19;5031931;28;20568;-42
2023/05/24 11:02:50;;;;;;;16.20;5.32;;;;;;;15.36;77.66;101944.78;5032716;28;20179;-43
2023/05/24 11:05:17;;;;;;;16.63;4.95;;;;;;;15.06;78.30;101963.09;5032877;28;20192;-44
2023/05/24 11:07:43;;;;;;;11.50;4.90;;;;;;;14.93;78.94;101965.38;5031867;28;20200;-43
2023/05/24 11:10:29;;;;;;;12.65;4.88;;;;;;;14.86;79.06;101971.06;5032670;28;20572;-43
2023/05/24 11:13:02;;;;;;;15.38;4.88;;;;;;;14.96;78.96;101961.69;5031482;28;20172;-42
2023/05/24 11:15:29;;;;;;;13.43;4.47;;;;;;;14.99;78.62;101961.56;5032635;28;20421;-43